• Join FlightAware (Why Join?)
  • Login
  • US Flag 
09:25PM EDT


 

Airport Tracker/Info


-or-


 

Live Flight TrackerFlight Track Log ✈ DAL268 ✈ 03/05/2013 ✈ KJFK - LLBG / TLV

Flight Track Log - Related Links

Times and Time Zones

All times are in EDT time to prevent confusion due to time zone crossing. See the DAL268 flight status page for this flight to view local times or setup timezone preferences in your user account.

Time Position Orientation Groundspeed Altitude Reporting Facility
EDT Latitude Longitude Course Direction KTS MPH feet Rate Location/Type
11:51PM 40.6000 -73.7890 123° Southeast 179 206  Level FlightAware
11:52PM 40.5930 -73.7760 125° Southeast 177 204 200 1,320 Climbing FlightAware
11:52PM 40.5760 -73.7510 132° Southeast 188 216 1,000 1,200 Climbing FlightAware
11:53PM 40.5520 -73.7300 146° Southeast 221 254 1,400 960 Climbing FlightAware
11:53PM 40.5300 -73.7110 147° Southeast 239 275 1,900 1,200 Climbing FlightAware
11:53PM 40.5150 -73.6960 143° Southeast 252 290 2,200 1,380 Climbing FlightAware
11:54PM 40.5040 -73.6790 130° Southeast 256 295 2,600 1,380 Climbing FlightAware
11:54PM 40.4980 -73.6580 111° Southeast 263 303 2,900 2,100 Climbing FlightAware
11:54PM 40.4930 -73.6180 99° East 265 305 4,000 2,640 Climbing FlightAware
11:55PM 40.4955 -73.5636 87° East 271 312 5,400 2,640 Climbing FlightAware ADS-B
11:55PM 40.4968 -73.5339 87° East 275 316 6,200 2,280 Climbing FlightAware ADS-B
11:55PM 40.4982 -73.5073 86° East 281 323 6,700 2,220 Climbing FlightAware ADS-B
11:56PM 40.4997 -73.4800 86° East 282 325 7,400 2,280 Climbing FlightAware ADS-B
11:56PM 40.5011 -73.4488 87° East 290 334 8,000 2,280 Climbing FlightAware ADS-B
11:56PM 40.5027 -73.4210 86° East 292 336 8,700 2,520 Climbing FlightAware ADS-B
11:56PM 40.5045 -73.3891 86° East 294 338 9,400 2,340 Climbing FlightAware ADS-B
11:57PM 40.5063 -73.3621 85° East 297 342 10,000 1,380 Climbing FlightAware ADS-B
11:57PM 40.5090 -73.3036 87° East 327 376 10,500 1,140 Climbing FlightAware ADS-B
11:58PM 40.5114 -73.2384 87° East 351 404 11,200 1,200 Climbing FlightAware ADS-B
11:58PM 40.5152 -73.1709 86° East 372 428 11,800 1,320 Climbing FlightAware ADS-B
11:59PM 40.5192 -73.0962 86° East 393 452 12,600 1,620 Climbing FlightAware ADS-B
11:59PM 40.5221 -73.0426 86° East 400 460 13,300 1,860 Climbing FlightAware ADS-B
12:00AM 40.5354 -72.9672 77° East 408 470 14,300 1,920 Climbing FlightAware ADS-B
12:00AM 40.5470 -72.9256 70° East 408 470 14,900 1,920 Climbing FlightAware ADS-B
12:00AM 40.5532 -72.9100 62° Northeast 410 472 15,100 1,980 Climbing FlightAware ADS-B
12:00AM 40.5734 -72.8747 53° Northeast 412 474 15,700 1,740 Climbing FlightAware ADS-B
12:01AM 40.5861 -72.8585 44° Northeast 414 476 15,900 1,920 Climbing FlightAware ADS-B
12:01AM 40.6324 -72.8111 38° Northeast 416 479 17,000 2,040 Climbing FlightAware ADS-B
12:02AM 40.6791 -72.7640 37° Northeast 419 482 18,000 1,920 Climbing FlightAware ADS-B
12:02AM 40.7264 -72.7161 37° Northeast 421 484 19,000 1,860 Climbing FlightAware ADS-B
12:03AM 40.7739 -72.6682 37° Northeast 423 487 19,900 1,740 Climbing FlightAware ADS-B
12:03AM 40.8221 -72.6191 38° Northeast 426 490 20,800 1,740 Climbing FlightAware ADS-B
12:04AM 40.8707 -72.5696 38° Northeast 427 491 21,700 1,620 Climbing FlightAware ADS-B
12:04AM 40.9188 -72.5208 37° Northeast 428 493 22,500 1,500 Climbing FlightAware ADS-B
12:05AM 40.9663 -72.4721 38° Northeast 434 499 23,200 1,260 Climbing FlightAware ADS-B
12:05AM 41.0143 -72.4229 38° Northeast 438 504 23,800 1,080 Climbing FlightAware ADS-B
12:06AM 41.1010 -72.3340 38° Northeast 446 513 24,800 1,140 Climbing FlightAware
12:07AM 41.1542 -72.2800 37° Northeast 449 517 25,500 1,080 Climbing FlightAware ADS-B
12:11AM 41.6160 -71.8000 38° Northeast 457 526 30,600 960 Climbing FlightAware
12:12AM 41.6870 -71.7250 38° Northeast 461 531 31,000 240 Climbing FlightAware
12:13AM 41.7590 -71.6490 38° Northeast 459 528 31,000  Level FlightAware
12:13AM 41.8260 -71.5780 38° Northeast 458 527 31,000  Level FlightAware
12:14AM 41.9010 -71.4980 38° Northeast 457 526 31,000  Level FlightAware
12:15AM 41.9670 -71.4280 38° Northeast 456 525 31,000  Level FlightAware
12:15AM 42.0390 -71.3510 38° Northeast 455 524 31,000  Level FlightAware
12:16AM 42.1060 -71.2780 39° Northeast 455 524 31,000  Level FlightAware
12:17AM 42.1800 -71.1950 40° Northeast 453 521 31,000  Level FlightAware
12:18AM 42.2430 -71.1230 40° Northeast 452 520 31,000  Level FlightAware
12:18AM 42.3080 -71.0510 39° Northeast 451 519 31,000  Level FlightAware
12:19AM 42.3800 -70.9690 40° Northeast 451 519 31,000  Level FlightAware
12:20AM 42.4560 -70.8830 40° Northeast 450 518 31,000  Level FlightAware
12:20AM 42.5130 -70.8180 40° Northeast 450 518 31,000  Level FlightAware
12:21AM 42.5940 -70.7270 40° Northeast 449 517 31,000  Level FlightAware
12:22AM 42.6580 -70.6540 40° Northeast 449 517 31,000  Level FlightAware
12:22AM 42.7210 -70.5820 40° Northeast 447 514 31,000  Level FlightAware
12:23AM 42.7910 -70.5030 40° Northeast 444 511 31,000  Level FlightAware
12:24AM 42.8540 -70.4300 40° Northeast 444 511 31,000  Level FlightAware
12:25AM 42.9270 -70.3470 40° Northeast 443 510 31,000  Level FlightAware
12:25AM 42.9900 -70.2750 40° Northeast 442 509 31,000  Level FlightAware
12:26AM 43.0740 -70.1780 40° Northeast 441 507 31,000  Level FlightAware
12:27AM 43.1310 -70.1110 41° Northeast 442 509 31,000  Level FlightAware
12:28AM 43.1980 -70.0340 40° Northeast 442 509 31,000  Level FlightAware
12:28AM 43.2620 -69.9590 40° Northeast 441 507 31,000  Level FlightAware
12:29AM 43.3330 -69.8760 40° Northeast 443 510 31,000  Level FlightAware
12:30AM 43.3930 -69.8050 41° Northeast 443 510 31,000  Level FlightAware
12:30AM 43.4680 -69.7180 40° Northeast 442 509 31,000  Level FlightAware
12:31AM 43.5550 -69.6140 41° Northeast 441 507 31,000  Level FlightAware
12:32AM 43.6130 -69.5450 41° Northeast 435 501 31,000  Level FlightAware
12:33AM 43.6910 -69.4520 41° Northeast 435 501 31,000  Level FlightAware
12:34AM 43.7650 -69.3630 41° Northeast 435 501 31,000  Level FlightAware
12:35AM 43.8390 -69.2750 41° Northeast 441 507 31,000  Level FlightAware
12:35AM 43.9210 -69.1770 41° Northeast 439 505 31,000  Level FlightAware
12:36AM 43.9830 -69.1020 41° Northeast 439 505 31,000  Level FlightAware
12:37AM 44.0380 -69.0350 41° Northeast 439 505 31,000  Level FlightAware
12:37AM 44.1210 -68.9360 41° Northeast 441 507 31,000  Level FlightAware
12:38AM 44.1810 -68.8640 41° Northeast 442 509 31,000  Level FlightAware
12:39AM 44.2430 -68.7880 41° Northeast 444 511 31,000  Level FlightAware
12:40AM 44.3130 -68.7020 41° Northeast 446 513 31,000  Level FlightAware
12:40AM 44.3750 -68.6260 41° Northeast 448 516 31,000  Level FlightAware
12:41AM 44.4380 -68.5490 41° Northeast 450 518 31,000  Level FlightAware
12:42AM 44.5100 -68.4590 42° Northeast 451 519 31,000  Level FlightAware
12:42AM 44.5720 -68.3830 41° Northeast 453 521 31,000  Level FlightAware
12:43AM 44.6420 -68.2960 41° Northeast 455 524 31,000  Level FlightAware
12:44AM 44.7060 -68.2170 41° Northeast 458 527 31,000  Level FlightAware
12:44AM 44.7690 -68.1380 42° Northeast 460 529 31,000  Level FlightAware
12:45AM 44.8400 -68.0500 41° Northeast 462 532 31,000  Level FlightAware
12:46AM 44.9060 -67.9680 41° Northeast 464 534 31,000  Level FlightAware
12:47AM 44.9770 -67.8790 42° Northeast 466 536 31,000  Level FlightAware
12:47AM 45.0410 -67.7990 41° Northeast 468 539 31,000  Level FlightAware
12:48AM 45.1160 -67.7040 42° Northeast 470 541 31,000  Level FlightAware
12:49AM 45.1800 -67.6230 42° Northeast 472 543 31,000  Level FlightAware
12:49AM 45.2430 -67.5430 42° Northeast 472 543 31,000  Level FlightAware
12:50AM 45.3130 -67.4530 42° Northeast 466 536 31,000  Level FlightAware
12:51AM 45.4020 -67.3400 42° Northeast 466 536 31,000  Level FlightAware
12:52AM 45.5160 -67.1930 42° Northeast 475 547 31,000  Level FlightAware
12:53AM 45.6290 -67.0460 42° Northeast 475 547 31,000  Level FlightAware
12:54AM 45.7430 -66.8990 42° Northeast 475 547 31,000  Level FlightAware
12:55AM 45.8110 -66.8100 42° Northeast 468 539 31,000  Level FlightAware
12:56AM 45.8880 -66.7090 42° Northeast 474 545 31,000  Level FlightAware
12:57AM 45.9520 -66.6240 43° Northeast 476 548 31,000  Level FlightAware
12:57AM 46.0040 -66.5550 43° Northeast 476 548 31,000  Level FlightAware
12:58AM 46.0880 -66.4430 43° Northeast 471 542 31,000  Level FlightAware
12:59AM 46.1460 -66.3650 43° Northeast 470 541 31,000  Level FlightAware
12:59AM 46.2000 -66.2920 43° Northeast 470 541 31,000  Level FlightAware
01:00AM 46.2540 -66.2190 43° Northeast 470 541 31,000  Level FlightAware
01:01AM 46.3220 -66.1280 43° Northeast 470 541 31,000  Level FlightAware
01:01AM 46.3760 -66.0550 43° Northeast 470 541 31,000  Level FlightAware
01:02AM 46.4300 -65.9820 43° Northeast 470 541 31,000  Level FlightAware
01:03AM 46.4840 -65.9090 43° Northeast 470 541 31,000  Level FlightAware
01:03AM 46.5380 -65.8350 43° Northeast 470 541 31,000  Level FlightAware
01:04AM 46.6060 -65.7440 43° Northeast 470 541 31,000  Level FlightAware
01:05AM 46.6600 -65.6700 43° Northeast 470 541 31,000  Level FlightAware
01:06AM 46.7140 -65.5970 43° Northeast 470 541 31,000  Level FlightAware
01:06AM 46.7680 -65.5230 43° Northeast 470 541 31,000  Level FlightAware
01:07AM 46.8220 -65.4490 43° Northeast 470 541 31,000  Level FlightAware
01:08AM 46.8900 -65.3570 43° Northeast 470 541 31,000  Level FlightAware
01:09AM 47.2167 -64.9333 43° Northeast 480 552 31,000  Level Moncton Center
01:10AM 47.3167 -64.8000 42° Northeast 480 552 31,000  Level Moncton Center
01:11AM 47.4167 -64.6500 45° Northeast 480 552 31,000  Level Moncton Center
01:12AM 47.5000 -64.5167 47° Northeast 490 564 31,000  Level Moncton Center
01:13AM 47.6000 -64.3667 45° Northeast 490 564 31,000  Level Moncton Center
01:14AM 47.7000 -64.2500 38° Northeast 490 564 31,000  Level Moncton Center
01:15AM 47.7833 -64.1000 50° Northeast 490 564 31,000  Level Moncton Center
01:16AM 47.9000 -63.9500 41° Northeast 480 552 31,000  Level Moncton Center
01:17AM 47.9833 -63.8167 47° Northeast 480 552 31,000  Level Moncton Center
01:18AM 48.0833 -63.6667 45° Northeast 490 564 31,000  Level Moncton Center
01:19AM 48.1833 -63.5167 45° Northeast 490 564 31,000  Level Moncton Center
01:20AM 48.2667 -63.3833 47° Northeast 490 564 31,000  Level Moncton Center
01:21AM 48.3667 -63.2333 45° Northeast 490 564 31,000  Level Moncton Center
01:22AM 48.4333 -63.1167 49° Northeast 480 552 31,000  Level Gander Center
01:23AM 48.5333 -62.9667 45° Northeast 500 575 31,000  Level Gander Center
01:24AM 48.6333 -62.8167 45° Northeast 490 564 31,000  Level Gander Center
01:25AM 48.7167 -62.6833 47° Northeast 480 552 31,000  Level Gander Center
01:26AM 48.8333 -62.5500 37° Northeast 480 552 31,000  Level Gander Center
01:27AM 48.9167 -62.4000 50° Northeast 490 564 31,000  Level Gander Center
01:28AM 49.0167 -62.2500 45° Northeast 470 541 31,000  Level Gander Center
01:29AM 49.1000 -62.1000 50° Northeast 480 552 31,000  Level Gander Center
01:30AM 49.2000 -61.9500 44° Northeast 480 552 31,000  Level Gander Center
01:31AM 49.2833 -61.8000 50° Northeast 480 552 31,000  Level Gander Center
01:32AM 49.3833 -61.6667 41° Northeast 490 564 31,000  Level Gander Center
01:33AM 49.4667 -61.4833 55° Northeast 490 564 31,000  Level Gander Center
01:34AM 49.5667 -61.3667 37° Northeast 490 564 31,000  Level Gander Center
01:35AM 49.6667 -61.2000 47° Northeast 490 564 31,000  Level Gander Center
01:36AM 49.7500 -61.0500 49° Northeast 490 564 31,000  Level Gander Center
01:37AM 49.8500 -60.9000 44° Northeast 490 564 31,000  Level Gander Center
01:38AM 49.9500 -60.7333 47° Northeast 490 564 31,000  Level Gander Center
01:39AM 50.0333 -60.5833 49° Northeast 500 575 31,000  Level Gander Center
01:40AM 50.1333 -60.4167 47° Northeast 500 575 31,000  Level Gander Center
01:41AM 50.2333 -60.2667 44° Northeast 510 587 31,000  Level Gander Center
01:42AM 50.3333 -60.0833 49° Northeast 510 587 31,000  Level Gander Center
01:43AM 50.4333 -59.9167 47° Northeast 510 587 31,000  Level Gander Center
01:44AM 50.5167 -59.7500 52° Northeast 510 587 31,000  Level Gander Center
01:45AM 50.6167 -59.6000 44° Northeast 510 587 31,000  Level Gander Center
01:46AM 50.7000 -59.4333 52° Northeast 510 587 31,000 60 Level Gander Center
01:47AM 50.8000 -59.2500 49° Northeast 510 587 31,200 600 Climbing Gander Center
01:48AM 50.8833 -59.0500 57° Northeast 510 587 32,300 960 Climbing Gander Center
01:49AM 50.9833 -58.8667 49° Northeast 520 598 33,200 840 Climbing Gander Center
01:50AM 51.0667 -58.7000 51° Northeast 520 598 34,000 360 Climbing Gander Center
01:51AM 51.1333 -58.5167 60° Northeast 510 587 34,000  Level Gander Center
01:52AM 51.2333 -58.3167 51° Northeast 510 587 34,000  Level Gander Center
01:53AM 51.3167 -58.1500 51° Northeast 510 587 34,000  Level Gander Center
01:54AM 51.4000 -57.9500 56° Northeast 510 587 34,000  Level Gander Center
01:55AM 51.4833 -57.7667 54° Northeast 520 598 34,000  Level Gander Center
01:56AM 51.5667 -57.5667 56° Northeast 520 598 34,000  Level Gander Center
01:57AM 51.6667 -57.4000 46° Northeast 520 598 34,000  Level Gander Center
01:58AM 51.7500 -57.2000 56° Northeast 520 598 34,000  Level Gander Center
01:59AM 51.8333 -57.0000 56° Northeast 520 598 34,000  Level Gander Center
02:00AM 51.9167 -56.8000 56° Northeast 530 610 34,000  Level Gander Center
02:01AM 52.0000 -56.6333 51° Northeast 530 610 34,000  Level Gander Center
02:02AM 52.0833 -56.4333 56° Northeast 530 610 34,000  Level Gander Center
02:03AM 52.1667 -56.2333 56° Northeast 530 610 34,000  Level Gander Center
02:04AM 52.2667 -56.0333 51° Northeast 530 610 34,000  Level Gander Center
02:05AM 52.3333 -55.8333 61° Northeast 540 621 34,000  Level Gander Center
02:06AM 53.0667 -54.0667 67° East 549 632 34,000  Level ETMS Enhanced Traffic Management System
02:06AM 52.4333 -55.6333 51° Northeast 530 610 34,000  Level Gander Center
02:06AM 52.4500 -55.5667 67° East 530 610 34,000  Level Moncton Center
02:07AM 52.5167 -55.4000 57° Northeast 530 610 34,000  Level Moncton Center
02:08AM 52.5833 -55.2167 59° Northeast 540 621 34,000  Level Gander Center
02:09AM 52.6833 -55.0167 50° Northeast 540 621 34,000  Level Gander Center
02:10AM 52.7500 -54.8167 61° Northeast 530 610 34,000  Level Gander Center
02:11AM 52.8333 -54.6333 53° Northeast 530 610 34,000  Level Gander Center
02:12AM 52.9167 -54.4333 55° Northeast 540 621 34,000  Level Gander Center
02:13AM 53.0000 -54.2167 57° Northeast 540 621 34,000  Level Gander Center
02:14AM 53.0833 -54.0167 55° Northeast 540 621 34,000  Level Gander Center
02:15AM 53.0667 -54.0667 67° East 549 632 34,000  Level ETMS Enhanced Traffic Management System
02:15AM 53.1333 -53.7833 70° East 540 621 34,000  Level Gander Center
02:16AM 53.2000 -53.5333 67° East 540 621 34,000  Level Gander Center
02:17AM 53.2500 -53.2833 71° East 540 621 34,000  Level Gander Center
02:18AM 53.3000 -53.0500 70° East 550 633 34,000  Level Gander Center
02:19AM 53.3500 -52.8167 70° East 550 633 34,000  Level Gander Center
02:20AM 53.4000 -52.5833 70° East 550 633 34,000  Level Gander Center
02:21AM 53.4667 -52.3333 66° East 550 633 34,000  Level Gander Center
02:22AM 53.5167 -52.1000 70° East 550 633 34,000  Level Gander Center
02:23AM 53.5667 -51.8667 70° East 550 633 34,000  Level Gander Center
02:24AM 53.6333 -51.6000 67° East 560 644 34,000  Level Gander Center
02:25AM 53.6833 -51.3500 71° East 560 644 34,000  Level Gander Center
02:27AM 53.7667 -50.9000 72° East 410 472 34,000  Level Gander Center
02:27AM 53.8000 -50.8167 56° Northeast 500 575 34,000  Level Gander Center
02:28AM 53.8667 -50.5667 66° East 540 621 34,000  Level Gander Center
02:29AM 53.9000 -50.4167 69° East 560 644 34,000  Level Gander Center
02:29AM 53.9000 -50.3333 90° East 560 644 34,000  Level Gander Center
02:30AM 53.9500 -50.0667 72° East 570 656 34,000  Level Gander Center
02:31AM 54.0167 -49.8167 66° East 560 644 34,000  Level Gander Center
02:32AM 54.0000 -50.0000 67° East 574 661 34,000  Level ETMS Enhanced Traffic Management System
02:40AM 54.5466 -47.7237 69° East 574 661 34,000  Level FlightAware Transoceanic
02:41AM 54.6047 -47.4670 69° East 574 661 34,000  Level FlightAware Transoceanic
02:42AM 54.6622 -47.2097 69° East 574 661 34,000  Level FlightAware Transoceanic
02:43AM 54.7192 -46.9516 69° East 574 661 34,000  Level FlightAware Transoceanic
02:44AM 54.7756 -46.6928 69° East 574 661 34,000  Level FlightAware Transoceanic
02:45AM 54.8315 -46.4333 70° East 574 661 34,000  Level FlightAware Transoceanic
02:46AM 54.8868 -46.1730 70° East 574 661 34,000  Level FlightAware Transoceanic
02:47AM 54.9416 -45.9121 70° East 574 661 34,000  Level FlightAware Transoceanic
02:48AM 54.9958 -45.6504 70° East 574 661 34,000  Level FlightAware Transoceanic
02:49AM 55.0494 -45.3880 70° East 574 661 34,000  Level FlightAware Transoceanic
02:50AM 55.1025 -45.1250 71° East 574 661 34,000  Level FlightAware Transoceanic
02:51AM 55.1550 -44.8612 71° East 574 661 34,000  Level FlightAware Transoceanic
02:52AM 55.2069 -44.5967 71° East 574 661 34,000  Level FlightAware Transoceanic
02:53AM 55.2583 -44.3316 71° East 574 661 34,000  Level FlightAware Transoceanic
02:54AM 55.3091 -44.0658 72° East 574 661 34,000  Level FlightAware Transoceanic
02:55AM 55.3593 -43.7993 72° East 574 661 34,000  Level FlightAware Transoceanic
02:56AM 55.4089 -43.5321 72° East 574 661 34,000  Level FlightAware Transoceanic
02:57AM 55.4580 -43.2643 72° East 574 661 34,000  Level FlightAware Transoceanic
02:58AM 55.5064 -42.9958 72° East 574 661 34,000  Level FlightAware Transoceanic
02:59AM 55.5543 -42.7266 73° East 574 661 34,000  Level FlightAware Transoceanic
03:00AM 55.6015 -42.4568 73° East 574 661 34,000  Level FlightAware Transoceanic
03:01AM 55.6482 -42.1863 73° East 574 661 34,000  Level FlightAware Transoceanic
03:02AM 55.6943 -41.9152 73° East 574 661 34,000  Level FlightAware Transoceanic
03:03AM 55.7398 -41.6435 74° East 574 661 34,000  Level FlightAware Transoceanic
03:04AM 55.7847 -41.3711 74° East 574 661 34,000  Level FlightAware Transoceanic
03:05AM 55.8290 -41.0981 74° East 574 661 34,000  Level FlightAware Transoceanic
03:06AM 55.8726 -40.8245 74° East 574 661 34,000  Level FlightAware Transoceanic
03:07AM 55.9157 -40.5503 74° East 574 661 34,000  Level FlightAware Transoceanic
03:08AM 55.9582 -40.2754 75° East 574 661 34,000  Level FlightAware Transoceanic
03:09AM 55.9951 -40.0325 75° East  Level FlightAware Approximate
03:10AM 56.0316 -39.7891 75° East  Level FlightAware Approximate
03:11AM 56.0073 -39.8158 86° East  Level FlightAware Approximate
03:11AM 56.0000 -40.0000 86° East 574 661 34,000  Level ETMS Enhanced Traffic Management System
03:12AM 56.0169 -39.5644 86° East  Level FlightAware Approximate
03:13AM 56.0259 -39.3129 86° East  Level FlightAware Approximate
03:14AM 56.0345 -39.0612 86° East  Level FlightAware Approximate
03:15AM 56.0425 -38.8095 87° East  Level FlightAware Approximate
03:16AM 56.0500 -38.5576 87° East  Level FlightAware Approximate
03:17AM 56.0713 -37.7176 88° East 574 661 34,000  Level FlightAware Transoceanic
03:18AM 56.0773 -37.4318 88° East 574 661 34,000  Level FlightAware Transoceanic
03:19AM 56.0826 -37.1459 88° East 574 661 34,000  Level FlightAware Transoceanic
03:20AM 56.0872 -36.8600 88° East 574 661 34,000  Level FlightAware Transoceanic
03:21AM 56.0912 -36.5739 89° East 574 661 34,000  Level FlightAware Transoceanic
03:22AM 56.0945 -36.2878 89° East 574 661 34,000  Level FlightAware Transoceanic
03:23AM 56.0971 -36.0017 89° East 574 661 34,000  Level FlightAware Transoceanic
03:24AM 56.0991 -35.7155 89° East 574 661 34,000  Level FlightAware Transoceanic
03:25AM 56.1004 -35.4293 90° East 574 661 34,000  Level FlightAware Transoceanic
03:26AM 56.1011 -35.1431 90° East 574 661 34,000  Level FlightAware Transoceanic
03:27AM 56.1011 -34.8569 90° East 574 661 34,000  Level FlightAware Transoceanic
03:28AM 56.1004 -34.5707 90° East 574 661 34,000  Level FlightAware Transoceanic
03:29AM 56.0991 -34.2845 91° East 574 661 34,000  Level FlightAware Transoceanic
03:30AM 56.0971 -33.9983 91° East 574 661 34,000  Level FlightAware Transoceanic
03:31AM 56.0945 -33.7122 91° East 574 661 34,000  Level FlightAware Transoceanic
03:32AM 56.0912 -33.4261 91° East 574 661 34,000  Level FlightAware Transoceanic
03:33AM 56.0872 -33.1400 92° East 574 661 34,000  Level FlightAware Transoceanic
03:34AM 56.0826 -32.8541 92° East 574 661 34,000  Level FlightAware Transoceanic
03:35AM 56.0773 -32.5682 92° East 574 661 34,000  Level FlightAware Transoceanic
03:36AM 56.0713 -32.2824 92° East 574 661 34,000  Level FlightAware Transoceanic
03:37AM 56.0647 -31.9966 92° East 574 661 34,000  Level FlightAware Transoceanic
03:38AM 56.0575 -31.7110 93° East 574 661 34,000  Level FlightAware Transoceanic
03:39AM 56.0495 -31.4255 93° East 574 661 34,000  Level FlightAware Transoceanic
03:40AM 56.0409 -31.1401 93° East 574 661 34,000  Level FlightAware Transoceanic
03:41AM 56.0317 -30.8549 93° East 574 661 34,000  Level FlightAware Transoceanic
03:42AM 56.0218 -30.5698 94° East 574 661 34,000  Level FlightAware Transoceanic
03:43AM 56.0112 -30.2848 94° East 574 661 34,000  Level FlightAware Transoceanic
03:44AM 56.0014 -30.0335 94° East  Level FlightAware Approximate
03:45AM 55.9910 -29.7823 94° East  Level FlightAware Approximate
03:45AM 56.0000 -30.0000 96° East 559 643 34,000  Level ETMS Enhanced Traffic Management System
03:46AM 55.9885 -29.8164 96° East  Level FlightAware Approximate
03:47AM 55.9723 -29.5663 96° East  Level FlightAware Approximate
03:48AM 55.9556 -29.3164 97° East  Level FlightAware Approximate
03:49AM 55.9384 -29.0667 97° East  Level FlightAware Approximate
03:50AM 55.9207 -28.8172 97° East  Level FlightAware Approximate
03:51AM 55.8739 -28.0721 97° East 559 643 34,000  Level FlightAware Transoceanic
03:52AM 55.8534 -27.7977 98° East 559 643 34,000  Level FlightAware Transoceanic
03:53AM 55.8323 -27.5237 98° East 559 643 34,000  Level FlightAware Transoceanic
03:54AM 55.8106 -27.2499 98° East 559 643 34,000  Level FlightAware Transoceanic
03:55AM 55.7883 -26.9765 98° East 559 643 34,000  Level FlightAware Transoceanic
03:56AM 55.7654 -26.7034 99° East 559 643 34,000  Level FlightAware Transoceanic
03:57AM 55.7419 -26.4306 99° East 559 643 34,000  Level FlightAware Transoceanic
03:58AM 55.7178 -26.1581 99° East 559 643 34,000  Level FlightAware Transoceanic
03:59AM 55.6931 -25.8860 99° East 559 643 34,000  Level FlightAware Transoceanic
04:00AM 55.6678 -25.6142 99° East 559 643 34,000  Level FlightAware Transoceanic
04:01AM 55.6419 -25.3428 100° East 559 643 34,000  Level FlightAware Transoceanic
04:02AM 55.6154 -25.0717 100° East 559 643 34,000  Level FlightAware Transoceanic
04:03AM 55.5882 -24.8011 100° East 559 643 34,000  Level FlightAware Transoceanic
04:04AM 55.5606 -24.5307 100° East 559 643 34,000  Level FlightAware Transoceanic
04:05AM 55.5322 -24.2608 101° East 559 643 34,000  Level FlightAware Transoceanic
04:06AM 55.5034 -23.9913 101° East 559 643 34,000  Level FlightAware Transoceanic
04:07AM 55.4739 -23.7222 101° East 559 643 34,000  Level FlightAware Transoceanic
04:08AM 55.4438 -23.4534 101° East 559 643 34,000  Level FlightAware Transoceanic
04:09AM 55.4132 -23.1851 101° East 559 643 34,000  Level FlightAware Transoceanic
04:10AM 55.3819 -22.9172 102° East 559 643 34,000  Level FlightAware Transoceanic
04:11AM 55.3501 -22.6498 102° East 559 643 34,000  Level FlightAware Transoceanic
04:12AM 55.3177 -22.3827 102° East 559 643 34,000  Level FlightAware Transoceanic
04:13AM 55.2847 -22.1161 102° East 559 643 34,000  Level FlightAware Transoceanic
04:14AM 55.2511 -21.8500 103° East 559 643 34,000  Level FlightAware Transoceanic
04:15AM 55.2169 -21.5843 103° East 559 643 34,000  Level FlightAware Transoceanic
04:16AM 55.1822 -21.3191 103° East 559 643 34,000  Level FlightAware Transoceanic
04:17AM 55.1469 -21.0543 103° East 559 643 34,000  Level FlightAware Transoceanic
04:18AM 55.1110 -20.7900 103° East 559 643 34,000  Level FlightAware Transoceanic
04:19AM 55.0746 -20.5262 104° East 559 643 34,000  Level FlightAware Transoceanic
04:20AM 55.0376 -20.2628 104° East 559 643 34,000  Level FlightAware Transoceanic
04:21AM 55.0035 -20.0244 104° East  Level FlightAware Approximate
04:22AM 54.9690 -19.7864 104° East  Level FlightAware Approximate
04:23AM 54.9765 -19.8091 102° East  Level FlightAware Approximate
04:24AM 54.9466 -19.5694 102° East  Level FlightAware Approximate
04:25AM 54.9162 -19.3300 102° East  Level FlightAware Approximate
04:26AM 54.8853 -19.0910 103° East  Level FlightAware Approximate
04:27AM 54.8540 -18.8523 103° East  Level FlightAware Approximate
04:28AM 54.8222 -18.6140 103° East  Level FlightAware Approximate
04:29AM 54.7899 -18.3761 103° East  Level FlightAware Approximate
04:30AM 54.7571 -18.1386 103° East  Level FlightAware Approximate
04:31AM 54.7239 -17.9014 104° East  Level FlightAware Approximate
04:32AM 54.6903 -17.6647 104° East  Level FlightAware Approximate
04:33AM 54.6561 -17.4283 104° East  Level FlightAware Approximate
04:34AM 54.6216 -17.1924 104° East  Level FlightAware Approximate
04:35AM 54.5865 -16.9568 104° East  Level FlightAware Approximate
04:36AM 54.5510 -16.7216 105° East  Level FlightAware Approximate
04:37AM 54.5150 -16.4869 105° East  Level FlightAware Approximate
04:38AM 54.4786 -16.2526 105° East  Level FlightAware Approximate
04:39AM 54.4418 -16.0187 105° East  Level FlightAware Approximate
04:40AM 54.4045 -15.7852 105° East  Level FlightAware Approximate
04:41AM 54.3667 -15.5522 105° East  Level FlightAware Approximate
04:42AM 54.3285 -15.3195 106° East  Level FlightAware Approximate
04:43AM 54.2898 -15.0874 106° East  Level FlightAware Approximate
04:44AM 54.2507 -14.8556 106° East  Level FlightAware Approximate
04:45AM 54.2112 -14.6243 106° East  Level FlightAware Approximate
04:46AM 54.1712 -14.3935 106° East  Level FlightAware Approximate
04:46AM 53.8840 -14.0700 107° East 529 609 34,000  Level FlightAware
04:47AM 54.1308 -14.1630 107° East  Level FlightAware Approximate
04:47AM 53.8440 -13.8390 106° East 531 611 34,000  Level FlightAware
04:48AM 53.8190 -13.6950 106° East 531 611 34,000  Level FlightAware
04:48AM 53.7950 -13.5580 106° East 530 610 34,000  Level FlightAware
04:49AM 53.7620 -13.3610 106° East 530 610 34,000  Level FlightAware
04:50AM 53.7370 -13.2100 106° East 529 609 34,000  Level FlightAware
04:51AM 53.7060 -13.0160 105° East 528 608 34,000  Level FlightAware
04:51AM 53.6800 -12.8610 106° East 529 609 34,000  Level FlightAware
04:52AM 53.6330 -12.5840 106° East 530 610 34,000  Level FlightAware
04:53AM 53.6020 -12.4070 106° East 528 608 34,000  Level FlightAware
04:54AM 53.5720 -12.2450 107° East 527 606 34,000  Level FlightAware
04:55AM 53.5400 -12.0690 107° East 528 608 34,000  Level FlightAware
04:55AM 53.5100 -11.9100 108° East 530 610 34,000  Level FlightAware
04:56AM 53.4850 -11.7740 107° East 530 610 34,000  Level FlightAware
04:56AM 53.4620 -11.6550 108° East 530 610 34,000  Level FlightAware
04:57AM 53.4290 -11.4830 108° East 528 608 34,000  Level FlightAware
04:58AM 53.3980 -11.3250 108° East 528 608 34,000  Level FlightAware
04:58AM 53.3670 -11.1710 109° East 527 606 34,000 360 Level FlightAware
04:59AM 53.3180 -10.9190 108° East 525 604 34,700 840 Climbing FlightAware
05:00AM 53.2850 -10.7460 108° East 518 596 35,600 1,200 Climbing FlightAware
05:01AM 53.2630 -10.6320 108° East 513 590 36,200 1,020 Climbing FlightAware
05:01AM 53.2290 -10.4610 108° East 514 592 36,900 660 Climbing FlightAware
05:02AM 53.2120 -10.3720 108° East 515 593 37,000 60 Climbing FlightAware
05:03AM 53.1800 -10.2170 109° East 516 594 37,000  Level FlightAware
05:03AM 53.1490 -10.0670 109° East 514 592 37,000  Level FlightAware
05:04AM 53.1180 -9.9160 109° East 515 593 37,000  Level FlightAware
05:05AM 53.0860 -9.7670 110° East 517 595 37,000  Level FlightAware
05:05AM 53.0570 -9.6330 110° East 520 598 37,000  Level FlightAware
05:06AM 53.0170 -9.4470 110° East 520 598 37,000  Level FlightAware
05:07AM 52.9720 -9.2430 110° East 519 597 37,000 -1,200 Level FlightAware
05:07AM 52.9632 -8.9726 110° East 496 571 35,500  Descending FlightAware UK
05:07AM 52.9460 -9.1280 110° East 518 596 37,000  Climbing FlightAware
05:08AM 52.9481 -8.9056 110° East 494 568 35,500 -4,500 Descending FlightAware UK
05:08AM 52.9380 -8.8610 110° East 494 568 35,500  Level FlightAware UK
05:08AM 52.9232 -8.7946 110° East 494 568 35,500 3,600 Level FlightAware UK
05:08AM 52.9100 -8.9640 110° East 518 596 37,000  Climbing FlightAware
05:08AM 52.9031 -8.7058 110° East 492 566 35,500 -2,580 Descending FlightAware UK
05:09AM 52.8881 -8.6390 110° East 492 566 35,500 3,900 Level FlightAware UK
05:09AM 52.8760 -8.8130 110° East 518 596 37,000  Climbing FlightAware
05:09AM 52.8679 -8.5505 110° East 492 566 35,500 -2,460 Descending FlightAware UK
05:09AM 52.8527 -8.4841 111° Southeast 490 564 35,500 3,420 Level FlightAware UK
05:10AM 52.8390 -8.6460 111° Southeast 519 597 37,000  Climbing FlightAware
05:10AM 52.8322 -8.3956 111° Southeast 494 568 35,500 -2,700 Descending FlightAware UK
05:10AM 52.8167 -8.3286 111° Southeast 492 566 35,500 3,720 Level FlightAware UK
05:10AM 52.8060 -8.5010 111° Southeast 519 597 37,000  Climbing FlightAware
05:11AM 52.7962 -8.2399 111° Southeast 494 568 35,500 -2,520 Descending FlightAware UK
05:11AM 52.7809 -8.1736 111° Southeast 492 566 35,500 4,080 Level FlightAware UK
05:11AM 52.7710 -8.3490 111° Southeast 517 595 37,000  Climbing FlightAware
05:11AM 52.7605 -8.0848 111° Southeast 490 564 35,500  Descending FlightAware UK
05:11AM 52.7460 -8.2420 111° Southeast 518 596 37,000  Climbing FlightAware
05:12AM 52.7345 -7.9742 111° Southeast 494 568 35,500 -2,400 Descending FlightAware UK
05:12AM 52.7189 -7.9076 111° Southeast 496 571 35,500 4,500 Level FlightAware UK
05:12AM 52.7120 -8.0910 111° Southeast 518 596 37,000  Climbing FlightAware
05:12AM 52.7033 -7.8413 111° Southeast 496 571 35,500 -2,700 Descending FlightAware UK
05:13AM 52.6874 -7.7750 112° Southeast 494 568 35,500 3,060 Level FlightAware UK
05:13AM 52.6720 -7.9250 112° Southeast 522 601 37,000  Climbing FlightAware
05:13AM 52.6605 -7.6650 112° Southeast 494 568 35,500 -2,460 Descending FlightAware UK
05:13AM 52.6443 -7.5990 112° Southeast 496 571 35,500 4,260 Level FlightAware UK
05:13AM 52.6360 -7.7760 112° Southeast 522 601 37,000  Climbing FlightAware
05:14AM 52.6281 -7.5332 112° Southeast 492 566 35,500  Descending FlightAware UK
05:14AM 52.6110 -7.6710 112° Southeast 521 600 37,000  Climbing FlightAware
05:14AM 52.6119 -7.4672 112° Southeast 494 568 35,500 -6,000 Descending FlightAware UK
05:14AM 52.6011 -7.4232 112° Southeast 494 568 35,500  Level FlightAware UK
05:15AM 52.5850 -7.3572 112° Southeast 496 571 35,500 2,520 Level FlightAware UK
05:15AM 52.5660 -7.4830 112° Southeast 521 600 37,000  Climbing FlightAware
05:15AM 52.5530 -7.2255 112° Southeast 492 566 35,500 -2,460 Descending FlightAware UK
05:15AM 52.5370 -7.1590 112° Southeast 492 566 35,500 4,260 Level FlightAware UK
05:15AM 52.5300 -7.3350 112° Southeast 521 600 37,000  Climbing FlightAware
05:16AM 52.5212 -7.0931 112° Southeast 496 571 35,500 -2,760 Descending FlightAware UK
05:16AM 52.5051 -7.0273 112° Southeast 494 568 35,500 3,600 Level FlightAware UK
05:16AM 52.4950 -7.1890 112° Southeast 522 601 37,000  Climbing FlightAware
05:16AM 52.4835 -6.9398 112° Southeast 492 566 35,500 -2,580 Descending FlightAware UK
05:17AM 52.4673 -6.8742 112° Southeast 492 566 35,500 3,180 Level FlightAware UK
05:17AM 52.4580 -7.0360 112° Southeast 522 601 37,000  Climbing FlightAware
05:17AM 52.4403 -6.7648 112° Southeast 492 566 35,500 -2,400 Descending FlightAware UK
05:18AM 52.4240 -6.6992 112° Southeast 496 571 35,500 4,500 Level FlightAware UK
05:18AM 52.4210 -6.8870 112° Southeast 524 603 37,000  Climbing FlightAware
05:18AM 52.4075 -6.6336 112° Southeast 498 573 35,500 -2,700 Descending FlightAware UK
05:18AM 52.3912 -6.5680 112° Southeast 496 571 35,500 3,060 Level FlightAware UK
05:18AM 52.3770 -6.7110 112° Southeast 521 600 37,000  Climbing FlightAware
05:19AM 52.3637 -6.4590 112° Southeast 494 568 35,500  Descending FlightAware UK
05:19AM 52.3480 -6.5950 113° Southeast 521 600 37,000  Climbing FlightAware
05:19AM 52.3471 -6.3939 113° Southeast 496 571 35,500 -4,500 Descending FlightAware UK
05:19AM 52.3306 -6.3287 113° Southeast 496 571 35,500  Level FlightAware UK
05:20AM 52.3141 -6.2636 112° Southeast 494 568 35,500 3,000 Level FlightAware UK
05:20AM 52.3000 -6.4040 112° Southeast 521 600 37,000  Climbing FlightAware
05:20AM 52.2865 -6.1553 112° Southeast 492 566 35,500 -2,520 Descending FlightAware UK
05:20AM 52.2700 -6.0904 112° Southeast 494 568 35,500 4,080 Level FlightAware UK
05:20AM 52.2630 -6.2570 112° Southeast 520 598 37,000  Climbing FlightAware
05:21AM 52.2479 -6.0039 112° Southeast 496 571 35,500 -2,400 Descending FlightAware UK
05:21AM 52.2310 -5.9385 113° Southeast 496 571 35,500 4,500 Level FlightAware UK
05:21AM 52.2290 -6.1230 113° Southeast 520 598 37,000  Climbing FlightAware
05:21AM 52.2142 -5.8741 113° Southeast 494 568 35,500 -2,700 Descending FlightAware UK
05:22AM 52.2014 -5.8078 107° East 492 566 35,500 3,060 Level FlightAware UK
05:22AM 52.1910 -5.9430 107° East 515 593 37,000  Climbing FlightAware
05:22AM 52.1871 -5.6946 107° East 492 566 35,500 -2,460 Descending FlightAware UK
05:22AM 52.1792 -5.6265 101° East 492 566 35,500 4,260 Level FlightAware UK
05:22AM 52.1740 -5.7970 101° East 514 592 37,000  Climbing FlightAware
05:23AM 52.1711 -5.5586 101° East 494 568 35,500 -2,760 Descending FlightAware UK
05:23AM 52.1621 -5.4907 102° East 494 568 35,500 3,000 Level FlightAware UK
05:23AM 52.1520 -5.6260 102° East 515 593 37,000  Climbing FlightAware
05:24AM 52.1456 -5.3781 102° East 494 568 35,500  Descending FlightAware UK
05:24AM 52.1290 -5.4670 102° East 516 594 37,000  Climbing FlightAware
05:24AM 52.1214 -5.2204 102° East 494 568 35,500 -2,400 Descending FlightAware UK
05:25AM 52.1108 -5.1529 104° East 492 566 35,500 4,500 Level FlightAware UK
05:25AM 52.1060 -5.3160 104° East 517 595 37,000  Climbing FlightAware
05:25AM 52.1002 -5.0855 104° East 494 568 35,500 -2,280 Descending FlightAware UK
05:25AM 52.0863 -4.9953 104° East 494 568 35,500 3,060 Level FlightAware UK
05:25AM 52.0820 -5.1590 104° East 517 595 37,000  Climbing FlightAware
05:26AM 52.0725 -4.9044 104° East 496 571 35,500 -2,460 Descending FlightAware UK
05:26AM 52.0631 -4.8373 103° East 494 568 35,500 4,260 Level FlightAware UK
05:26AM 52.0590 -4.9980 103° East 517 595 37,000  Climbing FlightAware
05:26AM 52.0536 -4.7686 103° East 494 568 35,500 -2,760 Descending FlightAware UK
05:27AM 52.0441 -4.7007 103° East 498 573 35,500 3,600 Level FlightAware UK
05:27AM 52.0380 -4.8510 103° East 517 595 37,000  Climbing FlightAware
05:27AM 52.0312 -4.6103 103° East 496 571 35,500 -2,580 Descending FlightAware UK
05:27AM 52.0216 -4.5425 103° East 494 568 35,500 3,180 Level FlightAware UK
05:27AM 52.0140 -4.6800 103° East 518 596 37,000  Climbing FlightAware
05:28AM 52.0023 -4.4069 103° East 494 568 35,500  Descending FlightAware UK
05:28AM 51.9920 -4.5250 103° East 517 595 37,000  Climbing FlightAware
05:28AM 51.9861 -4.2938 103° East 494 568 35,500 -2,700 Descending FlightAware UK
05:29AM 51.9764 -4.2259 103° East 494 568 35,500 3,720 Level FlightAware UK
05:29AM 51.9700 -4.3720 103° East 519 597 37,000  Climbing FlightAware
05:29AM 51.9634 -4.1353 103° East 494 568 35,500  Descending FlightAware UK
05:29AM 51.9543 -4.2603 103° East 519 597 37,000 1,620 Climbing FlightAware ADS-B
05:30AM 51.9306 -4.0963 103° East 521 600 37,000 -1,500 Level FlightAware ADS-B
05:30AM 51.9236 -3.8624 103° East 496 571 35,500 -2,100 Descending FlightAware UK
05:31AM 51.9100 -3.7716 104° East 496 571 35,500 2,280 Level FlightAware UK
05:31AM 51.9000 -3.8860 104° East 521 600 37,000 1,620 Climbing FlightAware
05:32AM 51.8770 -3.7370 104° East 520 598 37,000 -1,440 Level FlightAware
05:32AM 51.8654 -3.4764 104° East 496 571 35,500  Descending FlightAware UK
05:32AM 51.8540 -3.5830 104° East 519 597 37,000  Climbing FlightAware
05:32AM 51.8553 -3.4087 104° East 496 571 35,500 -2,460 Descending FlightAware UK
05:33AM 51.8343 -3.2735 104° East 496 571 35,500 1,800 Level FlightAware UK
05:33AM 51.8250 -3.3890 104° East 519 597 37,000  Climbing FlightAware
05:34AM 51.8098 -3.1160 104° East 494 568 35,500  Descending FlightAware UK
05:34AM 51.8001 -3.2308 104° East 520 598 37,000  Climbing FlightAware ADS-B
05:34AM 51.7920 -3.0026 104° East 494 568 35,500  Descending FlightAware UK
05:34AM 51.7814 -3.1119 104° East 521 600 37,000  Climbing FlightAware ADS-B
05:35AM 51.7743 -2.8900 104° East 494 568 35,500  Descending FlightAware UK
05:35AM 51.7630 -2.9952 104° East 521 600 37,000  Climbing FlightAware ADS-B
05:35AM 51.7562 -2.7773 104° East 496 571 35,500  Descending FlightAware UK
05:35AM 51.7451 -2.8823 104° East 521 600 37,000  Climbing FlightAware ADS-B
05:36AM 51.7379 -2.6638 104° East 498 573 35,500  Descending FlightAware UK
05:36AM 51.7262 -2.7634 104° East 521 600 37,000 1,860 Climbing FlightAware ADS-B
05:36AM 51.7079 -2.6493 104° East 520 598 37,000  Level FlightAware ADS-B
05:37AM 51.6861 -2.5059 104° East 515 593 37,000 -1,500 Level FlightAware ADS-B
05:37AM 51.6794 -2.2579 104° East 494 568 35,500  Descending FlightAware UK
05:38AM 51.6743 -2.3775 104° East 513 590 37,000  Climbing FlightAware ADS-B
05:38AM 51.6690 -2.1438 104° East 488 562 35,500  Descending FlightAware UK
05:38AM 51.6631 -2.2569 104° East 518 596 37,000 2,100 Climbing FlightAware ADS-B
05:39AM 51.6516 -2.1420 99° East 523 602 37,000 -1,680 Level FlightAware ADS-B
05:39AM 51.6429 -1.8905 99° East 496 571 35,500  Descending FlightAware UK
05:39AM 51.6389 -2.0250 99° East 525 604 37,000  Climbing FlightAware ADS-B
05:39AM 51.6326 -1.7984 99° East 502 578 35,500  Descending FlightAware UK
05:40AM 51.6262 -1.9098 99° East 525 604 37,000  Climbing FlightAware ADS-B
05:40AM 51.6170 -1.6600 99° East 502 578 35,500  Descending FlightAware UK
05:40AM 51.6120 -1.7805 99° East 524 603 37,000 2,700 Climbing FlightAware ADS-B
05:40AM 51.6031 -1.6953 100° East 524 603 37,000  Level FlightAware ADS-B
05:41AM 51.5990 -1.6658 103° East 526 605 37,000  Level FlightAware ADS-B
05:41AM 51.5804 -1.5713 108° East 529 609 37,000 -1,800 Level FlightAware ADS-B
05:41AM 51.5602 -1.3192 108° East 496 571 35,500  Descending FlightAware UK
05:42AM 51.5541 -1.4542 108° East 530 610 37,000 2,340 Climbing FlightAware ADS-B
05:42AM 51.5288 -1.3412 110° East 531 611 37,000  Level FlightAware ADS-B
05:43AM 51.5032 -1.2263 110° East 531 611 37,000 -1,740 Level FlightAware ADS-B
05:43AM 51.4849 -0.9849 110° East 506 582 35,500  Descending FlightAware UK
05:43AM 51.4701 -1.0766 110° East 530 610 37,000 1,740 Climbing FlightAware ADS-B
05:44AM 51.4459 -0.9609 109° East 528 608 37,000  Level FlightAware ADS-B
05:44AM 51.4294 -0.8485 103° East 528 608 37,000 -1,980 Level FlightAware ADS-B
05:45AM 51.4220 -0.6227 103° East 500 575 35,500  Descending FlightAware UK
05:45AM 51.4187 -0.7310 103° East 529 609 37,000 2,040 Climbing FlightAware ADS-B
05:45AM 51.4088 -0.6130 98° East 529 609 37,000  Level FlightAware ADS-B
05:46AM 51.3984 -0.4929 98° East 527 606 37,000  Level FlightAware ADS-B
05:46AM 51.3879 -0.3708 98° East 527 606 37,000 -1,620 Level FlightAware ADS-B
05:47AM 51.3774 -0.1099 98° East 500 575 35,500  Descending FlightAware UK
05:47AM 51.3771 -0.2474 98° East 528 608 37,000  Climbing FlightAware ADS-B
05:47AM 51.3689 -0.0162 98° East 502 578 35,500  Descending FlightAware UK
05:47AM 51.3669 -0.1293 98° East 530 610 37,000 2,040 Climbing FlightAware ADS-B
05:48AM 51.3564 -0.0125 98° East 529 609 37,000 -1,740 Level FlightAware ADS-B
05:48AM 51.3454 0.2408 98° East 502 578 35,500  Descending FlightAware UK
05:48AM 51.3454 0.1062 98° East 531 611 37,000 2,340 Climbing FlightAware ADS-B
05:49AM 51.3344 0.2221 99° East 531 611 37,000 -1,980 Level FlightAware ADS-B
05:49AM 51.3252 0.4506 99° East 506 582 35,500  Descending FlightAware UK
05:49AM 51.3222 0.3492 99° East 531 611 37,000 1,740 Climbing FlightAware ADS-B
05:50AM 51.3097 0.4797 99° East 529 609 37,000 -1,800 Level FlightAware ADS-B
05:50AM 51.3000 0.7074 99° East 508 585 35,500  Descending FlightAware UK
05:51AM 51.2980 0.6021 99° East 527 606 37,000 1,920 Climbing FlightAware ADS-B
05:51AM 51.2867 0.7206 99° East 526 605 37,000 -1,800 Level FlightAware ADS-B
05:51AM 51.2749 0.9620 99° East 506 582 35,500  Descending FlightAware UK
05:52AM 51.2747 0.8424 99° East 524 603 37,000  Climbing FlightAware ADS-B
05:52AM 51.2565 1.1457 99° East 510 587 35,500 -1,380 Descending FlightAware UK
05:53AM 51.2449 1.2594 99° East 504 580 35,500 2,100 Level FlightAware UK
05:53AM 51.2460 1.1320 99° East 517 595 37,000  Climbing FlightAware
05:53AM 51.2311 1.3959 99° East 500 575 35,500  Descending FlightAware UK
05:54AM 51.2320 1.2740 99° East 518 596 37,000  Climbing FlightAware
05:54AM 51.2171 1.5321 99° East 500 575 35,500  Descending FlightAware UK
05:54AM 51.2130 1.4320 99° East 519 597 37,000  Climbing FlightAware
05:54AM 51.1943 1.6666 99° East 502 578 35,500  Descending FlightAware UK
05:55AM 51.1770 1.5870 99° East 519 597 37,000  Climbing FlightAware
05:55AM 51.1403 1.8559 99° East 510 587 35,500  Descending FlightAware UK
05:56AM 51.1350 1.7260 99° East 515 593 37,000 1,500 Climbing FlightAware
05:56AM 51.0910 1.8720 116° Southeast 510 587 37,000 -1,200 Level FlightAware
05:57AM 51.0469 2.1620 116° Southeast 502 578 35,500  Descending FlightAware UK
05:57AM 51.0490 2.0100 116° Southeast 508 585 37,000  Climbing FlightAware
05:57AM 51.0094 2.2828 116° Southeast 506 582 35,500  Descending FlightAware UK
05:58AM 51.0020 2.1610 116° Southeast 504 580 37,000  Climbing FlightAware
05:58AM 50.9591 2.4433 116° Southeast 502 578 35,500  Descending FlightAware UK
05:58AM 50.9600 2.2940 116° Southeast 502 578 37,000  Climbing FlightAware
05:59AM 50.9155 2.5821 116° Southeast 500 575 35,500  Descending FlightAware UK
05:59AM 50.9190 2.4280 116° Southeast 501 577 37,000  Climbing FlightAware
06:00AM 50.8731 2.7212 116° Southeast 498 573 35,500  Descending FlightAware UK
06:00AM 50.8750 2.5770 116° Southeast 501 577 37,000  Climbing FlightAware
06:00AM 50.8434 2.8212 116° Southeast 496 571 35,500  Descending FlightAware UK
06:01AM 50.8340 2.7140 116° Southeast 502 578 37,000  Climbing FlightAware
06:01AM 50.7888 3.0007 116° Southeast 496 571 35,500  Descending FlightAware UK
06:01AM 50.7960 2.8400 116° Southeast 504 580 37,000  Climbing FlightAware
06:01AM 50.7642 3.0807 116° Southeast 498 573 35,500 -2,580 Descending FlightAware UK
06:02AM 50.7455 3.1406 116° Southeast 500 575 35,500 3,180 Level FlightAware UK
06:02AM 50.7490 2.9940 116° Southeast 505 581 37,000  Climbing FlightAware
06:02AM 50.7085 3.2617 116° Southeast 498 573 35,500  Descending FlightAware UK
06:03AM 50.7100 3.1200 116° Southeast 506 582 37,000 1,500 Climbing FlightAware
06:03AM 50.6610 3.2780 116° Southeast 509 586 37,000  Level FlightAware
06:04AM 50.6230 3.4030 116° Southeast 510 587 37,000  Level FlightAware
06:05AM 50.5770 3.5510 116° Southeast 511 588 37,000 -1,200 Level FlightAware
06:05AM 50.5266 3.8428 116° Southeast 500 575 35,500  Descending FlightAware UK
06:05AM 50.5340 3.6870 116° Southeast 511 588 37,000  Climbing FlightAware
06:06AM 50.4819 3.9828 116° Southeast 500 575 35,500  Descending FlightAware UK
06:06AM 50.4940 3.8170 116° Southeast 511 588 37,000  Climbing FlightAware
06:07AM 50.4435 4.1025 116° Southeast 1 1 35,500  Descending FlightAware UK
06:07AM 50.4430 3.9790 116° Southeast 512 589 37,000  Climbing FlightAware
06:07AM 50.3983 4.2427 116° Southeast 1 1 35,500  Descending FlightAware UK
06:07AM 50.4080 4.0890 116° Southeast 512 589 37,000  Climbing FlightAware
06:08AM 50.3593 4.3614 116° Southeast 1 1 35,500 -2,100 Descending FlightAware UK
06:08AM 50.3390 4.4191 119° Southeast 1 1 35,500 4,680 Level FlightAware UK
06:08AM 50.3590 4.2440 119° Southeast 511 588 37,000  Climbing FlightAware
06:08AM 50.3211 4.4815 119° Southeast 1 1 35,500 -2,580 Descending FlightAware UK
06:09AM 50.3018 4.5409 117° Southeast 1 1 35,500 3,180 Level FlightAware UK
06:09AM 50.3140 4.3850 117° Southeast 511 588 37,000  Climbing FlightAware
06:09AM 50.2697 4.6404 117° Southeast 1 1 35,500  Descending FlightAware UK
06:10AM 50.2700 4.5210 117° Southeast 512 589 37,000 1,500 Climbing FlightAware
06:10AM 50.2300 4.6450 117° Southeast 512 589 37,000  Level FlightAware
06:11AM 50.1830 4.7920 116° Southeast 511 588 37,000  Level FlightAware
06:12AM 50.1320 4.9470 117° Southeast 511 588 37,000  Level FlightAware
06:12AM 50.0890 5.0810 117° Southeast 511 588 37,000  Level FlightAware
06:13AM 50.0460 5.2120 117° Southeast 510 587 37,000  Level FlightAware
06:14AM 49.9970 5.3600 117° Southeast 510 587 37,000  Level FlightAware
06:15AM 49.9550 5.4820 118° Southeast 510 587 37,000  Level FlightAware
06:15AM 49.9050 5.6300 118° Southeast 509 586 37,000  Level FlightAware
06:16AM 49.8600 5.7630 118° Southeast 511 588 37,000  Level FlightAware
06:17AM 49.8150 5.8960 118° Southeast 510 587 37,000  Level FlightAware
06:17AM 49.7710 6.0280 117° Southeast 510 587 37,000  Level FlightAware
06:18AM 49.7240 6.1690 117° Southeast 508 585 37,000  Level FlightAware
06:19AM 49.6760 6.3100 118° Southeast 507 583 37,000  Level FlightAware
06:19AM 49.6310 6.4420 118° Southeast 507 583 37,000  Level FlightAware
06:20AM 49.5920 6.5540 118° Southeast 503 579 37,000  Level FlightAware
06:21AM 49.5420 6.6990 118° Southeast 507 583 37,000  Level FlightAware
06:22AM 49.4980 6.8260 118° Southeast 508 585 37,000  Level FlightAware
06:22AM 49.4470 6.9720 118° Southeast 507 583 37,000  Level FlightAware
06:23AM 49.4020 7.0970 119° Southeast 507 583 37,000  Level FlightAware
06:24AM 49.3610 7.2130 118° Southeast 507 583 37,000  Level FlightAware
06:24AM 49.3050 7.3670 119° Southeast 507 583 37,000  Level FlightAware
06:25AM 49.2600 7.4910 119° Southeast 506 582 37,000  Level FlightAware
06:26AM 49.2160 7.6160 118° Southeast 507 583 37,000  Level FlightAware
06:26AM 49.1670 7.7510 119° Southeast 507 583 37,000  Level FlightAware
06:27AM 49.1220 7.8760 119° Southeast 507 583 37,000  Level FlightAware
06:28AM 49.0680 8.0270 119° Southeast 507 583 37,000  Level FlightAware
06:29AM 49.0230 8.1510 119° Southeast 503 579 37,000  Level FlightAware
06:29AM 48.9800 8.2650 120° Southeast 503 579 37,000  Level FlightAware
06:30AM 48.9100 8.4550 119° Southeast 503 579 37,000  Level FlightAware
06:31AM 48.8400 8.6430 119° Southeast 505 581 37,000  Level FlightAware
06:34AM 48.6729 9.0648 121° Southeast  Level Estimated
06:34AM 48.5580 9.0970 121° Southeast 500 575 37,000  Level FlightAware
06:35AM 48.4380 9.2030 150° Southeast 499 574 37,000  Level FlightAware
06:36AM 48.3470 9.2820 150° Southeast 492 566 37,000  Level FlightAware
06:37AM 48.2770 9.3560 145° Southeast 497 572 37,000  Level FlightAware
06:37AM 48.1840 9.4790 139° Southeast 499 574 37,000  Level FlightAware
06:38AM 48.1330 9.5470 138° Southeast 497 572 37,000  Level FlightAware
06:39AM 48.0440 9.6650 138° Southeast 496 571 37,000  Level FlightAware
06:40AM 47.9660 9.7660 139° Southeast 492 566 37,000  Level FlightAware
06:40AM 47.8950 9.8570 139° Southeast 497 572 37,000  Level FlightAware
06:41AM 47.8150 9.9520 141° Southeast 490 564 37,000  Level FlightAware
06:42AM 47.7420 10.0330 143° Southeast 490 564 37,000  Level FlightAware
06:42AM 47.6600 10.1250 143° Southeast 490 564 37,000  Level FlightAware
06:44AM 47.5320 10.2670 143° Southeast 489 563 37,000  Level FlightAware
06:45AM 47.3780 10.4150 147° Southeast 478 550 37,000  Level FlightAware
06:46AM 47.2930 10.4840 151° Southeast 476 548 37,000  Level FlightAware
06:46AM 47.2060 10.5480 153° Southeast 476 548 37,000  Level FlightAware
06:47AM 47.0990 10.6250 154° Southeast 487 560 37,000  Level FlightAware
06:48AM 47.0300 10.6920 146° Southeast 490 564 37,000  Level FlightAware
06:49AM 46.9440 10.7810 145° Southeast 490 564 37,000  Level FlightAware
06:49AM 46.8650 10.8620 145° Southeast 491 565 37,000  Level FlightAware
06:50AM 46.7600 10.9680 145° Southeast 491 565 37,000  Level FlightAware
06:51AM 46.6790 11.0490 146° Southeast 493 567 37,000  Level FlightAware
06:52AM 46.6020 11.1260 145° Southeast 488 562 37,000  Level FlightAware
06:52AM 46.5190 11.2160 143° Southeast 499 574 37,000  Level FlightAware
06:53AM 46.4550 11.3170 133° Southeast 500 575 37,000  Level FlightAware
06:54AM 46.3900 11.4310 130° Southeast 493 567 37,000  Level FlightAware
06:54AM 46.3300 11.5350 130° Southeast 499 574 37,000  Level FlightAware
06:55AM 46.2770 11.6240 131° Southeast 499 574 37,000  Level FlightAware
06:56AM 46.2110 11.7380 130° Southeast 500 575 37,000  Level FlightAware
06:57AM 46.1220 11.8880 131° Southeast 497 572 37,000  Level FlightAware
06:57AM 46.0590 11.9940 131° Southeast 499 574 37,000  Level FlightAware
06:58AM 45.9910 12.1090 130° Southeast 499 574 37,000  Level FlightAware
06:59AM 45.9380 12.1990 130° Southeast 500 575 37,000  Level FlightAware
07:00AM 45.8620 12.3260 131° Southeast 500 575 37,000  Level FlightAware
07:00AM 45.8020 12.4260 131° Southeast 499 574 37,000  Level FlightAware
07:01AM 45.7320 12.5410 131° Southeast 499 574 37,000  Level FlightAware
07:02AM 45.6730 12.6370 131° Southeast 499 574 37,000  Level FlightAware
07:02AM 45.6130 12.7360 131° Southeast 498 573 37,000  Level FlightAware
07:03AM 45.5410 12.8530 131° Southeast 497 572 37,000  Level FlightAware
07:04AM 45.4800 12.9520 131° Southeast 495 570 37,000  Level FlightAware
07:04AM 45.4280 13.0470 128° Southeast 498 573 37,000  Level FlightAware
07:05AM 45.3660 13.1670 126° Southeast 498 573 37,000  Level FlightAware
07:06AM 45.3060 13.2820 127° Southeast 503 579 37,000  Level FlightAware
07:07AM 45.2490 13.3870 128° Southeast 502 578 37,000  Level FlightAware
07:07AM 45.1910 13.4940 128° Southeast 502 578 37,000  Level FlightAware
07:08AM 45.1290 13.6090 127° Southeast 504 580 37,000  Level FlightAware
07:09AM 45.0320 13.7860 128° Southeast 504 580 37,000  Level FlightAware
07:10AM 44.9700 13.9000 128° Southeast 505 581 37,000  Level FlightAware
07:12AM 44.8492 14.1795 121° Southeast  Level Estimated
07:13AM 44.7748 14.3501 121° Southeast  Level Estimated
07:14AM 44.7003 14.5202 122° Southeast  Level Estimated
07:14AM 44.6540 14.4790 122° Southeast 509 586 37,000  Level FlightAware
07:15AM 44.5340 14.6980 128° Southeast 507 583 37,000  Level FlightAware
07:16AM 44.4650 14.8270 127° Southeast 508 585 37,000  Level FlightAware
07:17AM 44.3740 14.9920 128° Southeast 503 579 37,000  Level FlightAware
07:17AM 44.3200 15.0860 129° Southeast 502 578 37,000  Level FlightAware
07:18AM 44.2320 15.2400 129° Southeast 502 578 37,000  Level FlightAware
07:19AM 44.1700 15.3510 128° Southeast 509 586 37,000  Level FlightAware
07:20AM 44.0970 15.4780 129° Southeast 512 589 37,000  Level FlightAware
07:21AM 43.9740 15.6920 129° Southeast 512 589 37,000  Level FlightAware
07:22AM 43.8760 15.8700 127° Southeast 512 589 37,000  Level FlightAware
07:23AM 43.8190 15.9770 126° Southeast 511 588 37,000  Level FlightAware
07:24AM 43.7600 16.0870 127° Southeast 511 588 37,000  Level FlightAware
07:25AM 43.6840 16.2310 126° Southeast 510 587 37,000  Level FlightAware
07:26AM 43.6010 16.3800 128° Southeast 508 585 37,000  Level FlightAware
07:26AM 43.5350 16.5020 127° Southeast 508 585 37,000  Level FlightAware
07:27AM 43.4770 16.6080 127° Southeast 509 586 37,000  Level FlightAware
07:28AM 43.4150 16.7210 127° Southeast 509 586 37,000  Level FlightAware
07:29AM 43.3580 16.8260 127° Southeast 508 585 37,000  Level FlightAware
07:29AM 43.3040 16.9220 128° Southeast 509 586 37,000  Level FlightAware
07:30AM 43.2380 17.0420 127° Southeast 510 587 37,000  Level FlightAware
07:31AM 43.1780 17.1500 127° Southeast 512 589 37,000  Level FlightAware
07:31AM 43.1220 17.2510 127° Southeast 511 588 37,000  Level FlightAware
07:32AM 43.0590 17.3640 127° Southeast 511 588 37,000  Level FlightAware
07:33AM 43.0010 17.4670 128° Southeast 512 589 37,000  Level FlightAware
07:33AM 42.9350 17.5860 127° Southeast 512 589 37,000  Level FlightAware
07:34AM 42.8790 17.6850 128° Southeast 512 589 37,000  Level FlightAware
07:35AM 42.8200 17.7900 127° Southeast 512 589 37,000  Level FlightAware
07:36AM 42.7570 17.8990 128° Southeast 508 585 37,000  Level FlightAware
07:36AM 42.6880 18.0210 128° Southeast 514 592 37,000  Level FlightAware
07:37AM 42.6300 18.1220 128° Southeast 512 589 37,000  Level FlightAware
07:38AM 42.5660 18.2160 133° Southeast 509 586 37,000  Level FlightAware
07:38AM 42.4950 18.3130 135° Southeast 509 586 37,000  Level FlightAware
07:39AM 42.4280 18.4050 135° Southeast 509 586 37,000  Level FlightAware
07:40AM 42.3600 18.4970 135° Southeast 509 586 37,000  Level FlightAware
07:40AM 42.2880 18.5950 135° Southeast 509 586 37,000  Level FlightAware
07:41AM 42.1910 18.7240 135° Southeast 509 586 37,000  Level FlightAware
07:42AM 42.1220 18.8160 135° Southeast 511 588 37,000  Level FlightAware
07:43AM 42.0570 18.9040 135° Southeast 513 590 37,000  Level FlightAware
07:43AM 41.9920 18.9910 135° Southeast 514 592 37,000  Level FlightAware
07:44AM 41.9050 19.1070 135° Southeast 517 595 37,000  Level FlightAware
07:45AM 41.8480 19.1810 136° Southeast 517 595 37,000  Level FlightAware
07:46AM 41.7590 19.2880 138° Southeast 516 594 37,000  Level FlightAware
07:46AM 41.6860 19.3720 139° Southeast 516 594 37,000  Level FlightAware
07:47AM 41.6140 19.4560 139° Southeast 516 594 37,000  Level FlightAware
07:48AM 41.5340 19.5550 137° Southeast 518 596 37,000  Level FlightAware
07:48AM 41.4660 19.6440 136° Southeast 518 596 37,000  Level FlightAware
07:49AM 41.3720 19.7660 136° Southeast 519 597 37,000  Level FlightAware
07:50AM 41.3030 19.8560 136° Southeast 520 598 37,000  Level FlightAware
07:51AM 41.2680 19.9020 135° Southeast 520 598 37,000  Level FlightAware
07:51AM 41.1550 20.0480 136° Southeast 520 598 37,000  Level FlightAware
07:52AM 41.0790 20.1450 136° Southeast 519 597 37,000  Level FlightAware
07:53AM 41.0100 20.2340 136° Southeast 517 595 37,000  Level FlightAware
07:54AM 40.9310 20.3340 136° Southeast 519 597 37,000  Level FlightAware
07:54AM 40.8610 20.4230 136° Southeast 519 597 37,000  Level FlightAware
07:55AM 40.7930 20.5090 136° Southeast 521 600 37,000  Level FlightAware
07:56AM 40.7410 20.5750 136° Southeast 521 600 37,000  Level FlightAware
07:57AM 40.6570 20.6810 136° Southeast 522 601 37,000  Level FlightAware
07:57AM 40.5780 20.7790 137° Southeast 520 598 37,000  Level FlightAware
07:58AM 40.5060 20.8690 136° Southeast 521 600 37,000  Level FlightAware
07:59AM 40.4180 20.9890 134° Southeast 523 602 37,000  Level FlightAware
08:00AM 40.3190 21.1380 131° Southeast 522 601 37,000  Level FlightAware
08:00AM 40.2590 21.2280 131° Southeast 522 601 37,000  Level FlightAware
08:01AM 40.2050 21.3090 131° Southeast 522 601 37,000  Level FlightAware
08:02AM 40.1380 21.4110 131° Southeast 522 601 37,000  Level FlightAware
08:02AM 40.0840 21.4920 131° Southeast 522 601 37,000  Level FlightAware
08:03AM 39.9810 21.6280 135° Southeast 520 598 37,000  Level FlightAware
08:04AM 39.9080 21.7340 132° Southeast 521 600 37,000  Level FlightAware
08:04AM 39.8440 21.8270 132° Southeast 521 600 37,000  Level FlightAware
08:05AM 39.7770 21.9220 133° Southeast 520 598 37,000  Level FlightAware
08:06AM 39.7030 22.0280 132° Southeast 522 601 37,000  Level FlightAware
08:07AM 39.6390 22.1200 132° Southeast 521 600 37,000  Level FlightAware
08:07AM 39.5680 22.2220 132° Southeast 520 598 37,000  Level FlightAware
08:08AM 39.5030 22.3130 133° Southeast 520 598 37,000  Level FlightAware
08:09AM 39.4290 22.4200 132° Southeast 523 602 37,000  Level FlightAware
08:09AM 39.3640 22.5120 132° Southeast 523 602 37,000  Level FlightAware
08:10AM 39.2970 22.6070 132° Southeast 521 600 37,000  Level FlightAware
08:11AM 39.2270 22.7060 132° Southeast 520 598 37,000  Level FlightAware
08:11AM 39.1610 22.7990 132° Southeast 521 600 37,000  Level FlightAware
08:12AM 39.0960 22.8900 133° Southeast 522 601 37,000  Level FlightAware
08:13AM 39.0200 22.9960 133° Southeast 523 602 37,000  Level FlightAware
08:14AM 38.9580 23.0810 133° Southeast 524 603 37,000  Level FlightAware
08:14AM 38.8810 23.1880 133° Southeast 525 604 37,000  Level FlightAware
08:15AM 38.8140 23.2810 133° Southeast 526 605 37,000  Level FlightAware
08:16AM 38.7460 23.3740 133° Southeast 527 606 37,000  Level FlightAware
08:16AM 38.6730 23.4750 133° Southeast 529 609 37,000  Level FlightAware
08:17AM 38.6070 23.5640 133° Southeast 532 612 37,000  Level FlightAware
08:18AM 38.5400 23.6560 133° Southeast 532 612 37,000  Level FlightAware
08:18AM 38.4610 23.7620 134° Southeast 534 615 37,000  Level FlightAware
08:19AM 38.3930 23.8530 134° Southeast 536 617 37,000  Level FlightAware
08:20AM 38.3180 23.9540 133° Southeast 535 616 37,000  Level FlightAware
08:21AM 38.2500 24.0450 134° Southeast 536 617 37,000  Level FlightAware
08:21AM 38.1810 24.1360 134° Southeast 538 619 37,000  Level FlightAware
08:22AM 38.1020 24.2410 134° Southeast 538 619 37,000  Level FlightAware
08:23AM 38.0350 24.3300 134° Southeast 539 620 37,000  Level FlightAware
08:23AM 37.9650 24.4220 134° Southeast 538 619 37,000  Level FlightAware
08:24AM 37.8860 24.5270 134° Southeast 539 620 37,000  Level FlightAware
08:25AM 37.8160 24.6180 134° Southeast 541 623 37,000  Level FlightAware
08:25AM 37.7410 24.7170 134° Southeast 542 624 37,000  Level FlightAware
08:26AM 37.6700 24.8100 134° Southeast 544 626 37,000  Level FlightAware
08:27AM 37.5880 24.9170 134° Southeast 545 627 37,000  Level FlightAware
08:28AM 37.5210 25.0040 134° Southeast 547 629 37,000  Level FlightAware
08:28AM 37.4420 25.1070 134° Southeast 545 627 37,000  Level FlightAware
08:29AM 37.3710 25.1990 134° Southeast 545 627 37,000  Level FlightAware
08:30AM 37.3010 25.2900 134° Southeast 544 626 37,000  Level FlightAware
08:30AM 37.2210 25.3930 134° Southeast 543 625 37,000  Level FlightAware
08:31AM 37.1500 25.4840 134° Southeast 543 625 37,000  Level FlightAware
08:32AM 37.0810 25.5740 134° Southeast 544 626 37,000  Level FlightAware
08:32AM 37.0030 25.6730 135° Southeast 543 625 37,000  Level FlightAware
08:33AM 36.9320 25.7630 135° Southeast 540 621 37,000  Level FlightAware
08:34AM 36.8520 25.8640 135° Southeast 539 620 37,000  Level FlightAware
08:34AM 36.7940 25.9370 135° Southeast 540 621 37,000  Level FlightAware
08:35AM 36.7160 26.0360 134° Southeast 540 621 37,000  Level FlightAware
08:36AM 36.6410 26.1370 133° Southeast 544 626 37,000  Level FlightAware
08:37AM 36.5840 26.2520 122° Southeast 547 629 37,000  Level FlightAware
08:37AM 36.5430 26.3540 117° Southeast 547 629 37,000  Level FlightAware
08:38AM 36.4880 26.4900 117° Southeast 546 628 37,000  Level FlightAware
08:39AM 36.4520 26.5820 116° Southeast 544 626 37,000  Level FlightAware
08:40AM 36.3910 26.7350 116° Southeast 543 625 37,000  Level FlightAware
08:40AM 36.3440 26.8540 116° Southeast 543 625 37,000  Level FlightAware
08:41AM 36.2940 26.9690 118° Southeast 543 625 37,000  Level FlightAware
08:42AM 36.2430 27.0940 117° Southeast 542 624 37,000  Level FlightAware
08:43AM 36.1770 27.2560 117° Southeast 543 625 37,000  Level FlightAware
08:43AM 36.1330 27.3570 118° Southeast 543 625 37,000  Level FlightAware
08:44AM 36.0860 27.4700 117° Southeast 542 624 37,000  Level FlightAware
08:45AM 36.0270 27.6070 118° Southeast 541 623 37,000  Level FlightAware
08:46AM 35.9540 27.7420 124° Southeast 543 625 37,000  Level FlightAware
08:46AM 35.9060 27.8290 124° Southeast 543 625 37,000  Level FlightAware
08:47AM 35.8270 27.9570 127° Southeast 542 624 37,000  Level FlightAware
08:48AM 35.7540 28.0810 126° Southeast 540 621 37,000  Level FlightAware
08:49AM 35.6970 28.1790 126° Southeast 538 619 37,000  Level FlightAware
08:49AM 35.6380 28.2790 126° Southeast 537 618 37,000  Level FlightAware
08:50AM 35.5740 28.3870 126° Southeast 537 618 37,000  Level FlightAware
08:51AM 35.5250 28.4700 126° Southeast 537 618 37,000  Level FlightAware
08:51AM 35.4480 28.6000 126° Southeast 538 619 37,000  Level FlightAware
08:52AM 35.3910 28.6940 127° Southeast 538 619 37,000  Level FlightAware
08:53AM 35.3300 28.7960 126° Southeast 538 619 37,000  Level FlightAware
08:53AM 35.2700 28.8960 126° Southeast 537 618 37,000  Level FlightAware
08:54AM 35.2220 28.9780 126° Southeast 537 618 37,000  Level FlightAware
08:55AM 35.1600 29.0820 126° Southeast 537 618 37,000  Level FlightAware
08:56AM 35.0670 29.2340 127° Southeast 528 608 37,000  Level FlightAware
08:56AM 35.0200 29.3170 125° Southeast 528 608 37,000  Level FlightAware
08:57AM 34.9720 29.4000 125° Southeast 528 608 37,000  Level FlightAware
08:58AM 34.8810 29.5360 129° Southeast 37,000  Level FlightAware
08:59AM 34.8160 29.6420 127° Southeast 536 617 37,000  Level FlightAware
09:00AM 34.7360 29.7720 127° Southeast 528 608 37,000  Level FlightAware
09:00AM 34.6560 29.9050 126° Southeast 526 605 37,000  Level FlightAware
09:01AM 34.5810 30.0250 127° Southeast 523 602 37,000  Level FlightAware
09:02AM 34.5290 30.1030 129° Southeast 523 602 37,000  Level FlightAware
09:03AM 34.4680 30.2620 115° Southeast 530 610 37,000  Level FlightAware
09:03AM 34.4190 30.3670 119° Southeast 528 608 37,000  Level FlightAware
09:04AM 34.3680 30.4720 120° Southeast 529 609 37,000  Level FlightAware
09:05AM 34.3110 30.5910 120° Southeast 532 612 37,000  Level FlightAware
09:06AM 34.2610 30.6970 120° Southeast 533 613 37,000  Level FlightAware
09:06AM 34.2050 30.8130 120° Southeast 532 612 37,000  Level FlightAware
09:07AM 34.1370 30.9530 120° Southeast 534 615 37,000  Level FlightAware
09:08AM 34.0850 31.0610 120° Southeast 540 621 37,000  Level FlightAware
09:09AM 34.0040 31.2290 120° Southeast 541 623 37,000  Level FlightAware
09:10AM 33.9450 31.3480 121° Southeast 541 623 37,000  Level FlightAware
09:10AM 33.8930 31.4560 120° Southeast 540 621 37,000  Level FlightAware
09:11AM 33.8410 31.5620 121° Southeast 537 618 37,000  Level FlightAware
09:12AM 33.7850 31.6760 121° Southeast 531 611 37,000  Level FlightAware
09:13AM 33.7280 31.7940 120° Southeast 527 606 37,000  Level FlightAware
09:13AM 33.6800 31.8900 121° Southeast 525 604 37,000  Level FlightAware
09:14AM 33.6240 32.0040 121° Southeast 526 605 37,000  Level FlightAware
09:15AM 33.5720 32.1090 121° Southeast 531 611 37,000  Level FlightAware
09:15AM 33.5130 32.2280 121° Southeast 532 612 37,000  Level FlightAware
09:16AM 33.4700 32.3140 121° Southeast 533 613 37,000 -300 Level FlightAware
09:17AM 33.4120 32.4300 121° Southeast 517 595 36,600 -900 Descending FlightAware
09:17AM 33.3630 32.5290 121° Southeast 509 586 35,800 -2,220 Descending FlightAware
09:18AM 33.3090 32.6360 121° Southeast 510 587 33,500 -2,400 Descending FlightAware
09:20AM 33.1850 32.8820 121° Southeast 478 550 29,600 -2,280 Descending FlightAware
09:21AM 33.1300 32.9910 121° Southeast 467 537 27,700 -2,400 Descending FlightAware
09:21AM 33.0840 33.0810 121° Southeast 455 524 26,200 -2,220 Descending FlightAware
09:22AM 33.0350 33.1750 122° Southeast 438 504 24,600 -2,220 Descending FlightAware
09:23AM 32.9910 33.2630 121° Southeast 426 490 23,100 -2,100 Descending FlightAware
09:24AM 32.9470 33.3490 121° Southeast 413 475 21,700 -1,560 Descending FlightAware
09:24AM 32.9080 33.4250 121° Southeast 401 461 20,900 -2,040 Descending FlightAware
09:25AM 32.8680 33.5030 121° Southeast 418 481 19,000 -2,400 Descending FlightAware
09:26AM 32.8240 33.5890 121° Southeast 403 464 17,500 -2,100 Descending FlightAware
09:26AM 32.7840 33.6670 121° Southeast 389 448 16,100 -1,860 Descending FlightAware
09:27AM 32.7450 33.7430 121° Southeast 376 433 14,900 -1,680 Descending FlightAware
09:28AM 32.7060 33.8170 122° Southeast 371 427 13,800 -1,620 Descending FlightAware
09:28AM 32.6700 33.8870 121° Southeast 370 426 12,800 -1,500 Descending FlightAware
09:29AM 32.6310 33.9620 122° Southeast 352 405 11,700 -1,320 Descending FlightAware
09:30AM 32.5960 34.0280 122° Southeast 353 406 11,000 -780 Descending FlightAware
09:31AM 32.5640 34.0870 123° Southeast 323 372 10,700 -540 Descending FlightAware
09:31AM 32.5190 34.1450 133° Southeast 289 333 10,300 -480 Descending FlightAware
09:32AM 32.4800 34.1920 135° Southeast 284 327 10,000 -720 Descending FlightAware
09:32AM 32.4530 34.2230 136° Southeast 294 338 9,500 -1,200 Descending FlightAware
09:33AM 32.4440 34.2350 132° Southeast 291 335 9,300 -960 Descending FlightAware
09:33AM 32.4060 34.2780 136° Southeast 283 326 8,700 -600 Descending FlightAware
09:34AM 32.3730 34.3180 134° Southeast 282 325 8,500 -180 Descending FlightAware
09:34AM 32.3500 34.3450 135° Southeast 282 325 8,500  Level FlightAware
09:35AM 32.3260 34.3730 135° Southeast 282 325 8,500  Level FlightAware
09:35AM 32.3030 34.4010 134° Southeast 282 325 8,500  Level FlightAware
09:38AM 32.1102 34.6553 125° Southeast  Level FlightAware Approximate
09:39AM 32.0402 34.7997 125° Southeast  Level FlightAware Approximate
09:40AM 32.0000 34.8667 125° Southeast  Level FlightAware Approximate
09:41AM 32.0095 34.8769 125° Southeast  Level Estimated
09:42AM 32.0095 34.8769 125° Southeast  Level Estimated
09:43AM 32.0095 34.8769 125° Southeast  Level Estimated
09:44AM 32.0095 34.8769 125° Southeast  Level Estimated
09:45AM 32.0095 34.8769 125° Southeast  Level Estimated
09:46AM 32.0095 34.8769 125° Southeast  Level Estimated